Welcome to the New NWS' Forecast!
Most changes are behind the scenes, but click here for differences you might notice.

Terminal Aerodrome Forecast (TAF)

Issued by National Weather Service (NWS)

                            
226 
FTUS42 KKEY 181730
TAFEYW
TAF
KEYW 181730Z 1818/1918 12010KT P6SM VCSH SCT025 BKN250
     FM182300 10008KT P6SM SCT022
     FM191400 14010KT P6SM FEW020 SCT030=